Time;durP1;ratioP1;P1;durP2;ratioP2;P2;SDS_P1;SDS_P2;PMS_P1;PMS_P2;Temp;Humidity;BMP_temperature;BMP_pressure;BME280_temperature;BME280_humidity;BME280_pressure;Samples;Min_cycle;Max_cycle;Signal;HPM_P1;HPM_P2
2021/03/15 00:00:19;;;;;;;7.63;5.33;;;2.60;99.90;;;;;;5140393;27;20179;-43
2021/03/15 00:02:45;;;;;;;8.23;5.53;;;2.50;99.90;;;;;;5140481;27;20186;-41
2021/03/15 00:05:12;;;;;;;6.83;5.30;;;2.60;99.90;;;;;;5140091;27;20424;-41
2021/03/15 00:07:41;;;;;;;7.00;5.30;;;2.60;99.90;;;;;;5122458;27;20421;-41
2021/03/15 00:10:08;;;;;;;6.83;5.40;;;2.50;99.90;;;;;;5140183;27;20664;-42
2021/03/15 00:12:34;;;;;;;6.70;4.83;;;2.50;99.90;;;;;;5140297;27;20744;-41
2021/03/15 00:15:00;;;;;;;5.80;5.00;;;2.40;99.90;;;;;;5139702;27;20473;-41
2021/03/15 00:17:26;;;;;;;8.33;5.30;;;2.40;99.90;;;;;;5139748;27;20460;-41
2021/03/15 00:19:52;;;;;;;8.00;5.50;;;2.30;99.90;;;;;;5139331;27;20416;-39
2021/03/15 00:22:17;;;;;;;6.57;5.97;;;2.30;99.90;;;;;;5139038;27;20186;-41
2021/03/15 00:24:43;;;;;;;8.17;5.13;;;2.30;99.90;;;;;;5139724;27;20474;-42
2021/03/15 00:27:09;;;;;;;6.27;5.17;;;2.40;99.90;;;;;;5139180;27;20210;-41
2021/03/15 00:29:34;;;;;;;7.00;5.03;;;2.30;99.90;;;;;;5139556;27;20413;-41
2021/03/15 00:32:00;;;;;;;7.50;5.80;;;2.80;99.90;;;;;;5138983;27;20167;-43
2021/03/15 00:34:26;;;;;;;11.17;7.40;;;4.30;99.90;;;;;;5139146;27;20600;-42
2021/03/15 00:36:51;;;;;;;8.33;6.10;;;4.80;99.90;;;;;;5139171;27;20576;-41
2021/03/15 00:39:17;;;;;;;6.10;5.20;;;5.20;99.90;;;;;;5139248;27;20513;-43
2021/03/15 00:41:43;;;;;;;8.13;5.77;;;5.50;99.90;;;;;;5139059;27;20580;-41
2021/03/15 00:44:09;;;;;;;5.10;4.70;;;5.60;99.90;;;;;;5120710;27;20415;-40
2021/03/15 00:46:36;;;;;;;5.27;4.47;;;5.10;99.90;;;;;;5139359;27;20259;-42
2021/03/15 00:49:02;;;;;;;5.60;4.70;;;4.60;99.90;;;;;;5139666;27;20425;-41
2021/03/15 00:51:28;;;;;;;4.40;4.00;;;4.10;99.60;;;;;;5138913;27;20424;-42
2021/03/15 00:53:54;;;;;;;4.37;3.97;;;3.70;99.60;;;;;;5138935;27;20909;-41
2021/03/15 00:56:19;;;;;;;7.80;4.27;;;3.30;99.90;;;;;;5139578;27;20244;-42
2021/03/15 00:58:45;;;;;;;5.70;4.40;;;3.20;99.90;;;;;;5138705;27;20211;-43
2021/03/15 01:01:16;;;;;;;4.30;3.90;;;3.10;99.90;;;;;;5139054;27;20239;-42
2021/03/15 01:03:42;;;;;;;6.70;5.07;;;2.80;99.90;;;;;;5138867;27;20252;-39
2021/03/15 01:06:10;;;;;;;8.60;4.70;;;2.80;99.90;;;;;;5139117;27;20464;-41
2021/03/15 01:08:35;;;;;;;5.40;4.90;;;2.70;99.90;;;;;;5138818;27;20545;-43
2021/03/15 01:11:01;;;;;;;6.20;5.00;;;2.60;99.90;;;;;;5138786;27;20424;-39
2021/03/15 01:13:27;;;;;;;7.00;5.23;;;2.60;99.90;;;;;;5138326;27;20345;-40
2021/03/15 01:15:52;;;;;;;7.13;4.50;;;2.50;99.90;;;;;;5138218;27;20628;-40
2021/03/15 01:18:18;;;;;;;5.90;4.27;;;2.50;99.90;;;;;;5138853;27;20281;-42
2021/03/15 01:20:44;;;;;;;6.03;4.53;;;2.40;99.90;;;;;;5138419;27;20183;-42
2021/03/15 01:23:09;;;;;;;6.10;4.97;;;2.40;99.90;;;;;;5138723;27;20251;-39
2021/03/15 01:25:40;;;;;;;8.40;5.50;;;2.30;99.90;;;;;;5139067;27;20210;-41
2021/03/15 01:28:10;;;;;;;9.50;5.70;;;2.30;99.90;;;;;;5120854;27;20494;-41
2021/03/15 01:30:37;;;;;;;6.23;4.77;;;2.20;99.90;;;;;;5138432;27;20540;-42
2021/03/15 01:33:03;;;;;;;6.70;5.07;;;2.20;99.90;;;;;;5138342;27;20463;-41
2021/03/15 01:35:29;;;;;;;8.20;5.90;;;2.20;99.90;;;;;;5138254;27;20546;-41
2021/03/15 01:37:55;;;;;;;5.57;5.07;;;2.20;99.90;;;;;;5138564;27;20897;-41
2021/03/15 01:40:22;;;;;;;7.50;5.07;;;2.30;99.90;;;;;;5138452;27;20599;-42
2021/03/15 01:42:48;;;;;;;7.53;5.30;;;2.30;99.90;;;;;;5137761;28;20454;-39
2021/03/15 01:45:14;;;;;;;6.67;5.57;;;2.30;99.90;;;;;;5138709;28;20530;-42
2021/03/15 01:47:41;;;;;;;13.00;5.40;;;2.30;99.90;;;;;;5138657;28;20485;-43
2021/03/15 01:50:08;;;;;;;9.23;6.00;;;2.30;99.90;;;;;;5134457;28;20843;-41
2021/03/15 01:52:35;;;;;;;6.20;5.10;;;2.30;99.90;;;;;;5133909;28;20870;-39
2021/03/15 01:55:02;;;;;;;12.53;6.77;;;2.30;99.90;;;;;;5138270;28;20555;-42
2021/03/15 01:57:28;;;;;;;6.47;5.80;;;2.30;99.90;;;;;;5138284;28;20707;-42
2021/03/15 01:59:53;;;;;;;10.90;6.43;;;2.30;99.90;;;;;;5119893;28;20408;-41
2021/03/15 02:02:19;;;;;;;7.73;6.10;;;2.30;99.90;;;;;;5120790;27;20435;-42
2021/03/15 02:04:45;;;;;;;8.20;6.27;;;2.30;99.90;;;;;;5141964;27;20174;-39
2021/03/15 02:07:11;;;;;;;11.93;5.93;;;2.40;99.90;;;;;;5142501;27;20811;-43
2021/03/15 02:09:36;;;;;;;11.00;6.47;;;2.40;99.90;;;;;;5124084;27;20176;-42
2021/03/15 02:12:34;;;;;;;7.47;5.50;;;2.40;99.90;;;;;;5142079;27;20436;-40
2021/03/15 02:15:18;;;;;;;6.20;5.60;;;2.40;99.90;;;;;;5124329;27;20179;-41
2021/03/15 02:18:17;;;;;;;7.57;5.87;;;2.40;99.90;;;;;;5142530;27;20550;-42
2021/03/15 02:21:03;;;;;;;13.13;8.40;;;2.40;99.90;;;;;;5142514;27;20485;-43
2021/03/15 02:23:38;;;;;;;7.07;6.23;;;2.40;99.90;;;;;;5142135;27;20777;-43
2021/03/15 02:26:03;;;;;;;8.47;6.00;;;2.40;99.90;;;;;;5141850;27;20455;-42
2021/03/15 02:28:47;;;;;;;8.80;5.50;;;2.30;99.90;;;;;;5141806;27;20501;-42
2021/03/15 02:31:36;;;;;;;7.13;6.10;;;2.30;99.90;;;;;;5142071;27;20181;-41
2021/03/15 02:34:20;;;;;;;8.07;6.13;;;2.30;99.90;;;;;;5142233;27;20413;-41
2021/03/15 02:36:48;;;;;;;8.23;7.30;;;2.30;99.90;;;;;;5142146;27;20501;-38
2021/03/15 02:39:19;;;;;;;12.97;6.40;;;2.20;99.90;;;;;;5141865;27;20435;-42
2021/03/15 02:41:47;;;;;;;6.10;5.50;;;2.20;99.90;;;;;;5141756;27;20446;-42
2021/03/15 02:47:38;;;;;;;11.73;5.70;;;2.30;99.90;;;;;;5141558;27;20418;-40
2021/03/15 02:50:06;;;;;;;8.80;4.80;;;2.30;99.90;;;;;;5124079;27;20469;-40
2021/03/15 02:52:32;;;;;;;6.60;5.43;;;2.30;99.90;;;;;;5141830;27;20781;-43
2021/03/15 02:55:00;;;;;;;8.20;5.50;;;2.30;99.90;;;;;;5123261;27;20427;-42
2021/03/15 02:57:29;;;;;;;7.43;5.50;;;2.20;99.90;;;;;;5123552;27;20489;-42
2021/03/15 02:59:55;;;;;;;8.57;5.70;;;2.20;99.90;;;;;;5123374;27;20687;-42
2021/03/15 03:02:21;;;;;;;9.57;5.30;;;2.20;99.90;;;;;;5141444;27;20427;-42
2021/03/15 03:04:48;;;;;;;10.63;5.50;;;2.10;99.90;;;;;;5122495;27;20419;-40
2021/03/15 03:07:16;;;;;;;7.50;5.57;;;2.20;99.90;;;;;;5141402;27;20472;-41
2021/03/15 03:09:42;;;;;;;8.07;4.70;;;2.30;99.90;;;;;;5141252;27;20428;-42
2021/03/15 03:12:10;;;;;;;7.30;4.90;;;2.40;99.90;;;;;;5122951;27;20702;-42
2021/03/15 03:14:36;;;;;;;10.60;5.30;;;2.40;99.90;;;;;;5140184;27;20705;-42
2021/03/15 03:17:02;;;;;;;9.60;4.67;;;2.40;99.90;;;;;;5140560;27;20465;-42
2021/03/15 03:19:29;;;;;;;10.73;4.63;;;2.50;99.90;;;;;;5122869;27;20951;-41
2021/03/15 03:21:55;;;;;;;13.00;5.20;;;2.40;99.90;;;;;;5122761;27;20765;-42
2021/03/15 03:24:23;;;;;;;6.47;4.23;;;2.40;99.90;;;;;;5140756;27;20501;-42
2021/03/15 03:26:49;;;;;;;7.73;3.77;;;2.40;99.90;;;;;;5122546;27;20460;-42
2021/03/15 03:29:15;;;;;;;8.30;4.10;;;2.60;99.90;;;;;;5140966;27;20425;-41
2021/03/15 03:31:43;;;;;;;6.03;4.10;;;2.50;99.90;;;;;;5122474;27;20512;-41
2021/03/15 03:34:09;;;;;;;5.27;3.73;;;2.40;99.90;;;;;;5123006;27;21003;-43
2021/03/15 03:36:35;;;;;;;7.40;4.23;;;2.40;99.90;;;;;;5140754;27;20413;-41
2021/03/15 03:39:01;;;;;;;6.20;4.50;;;2.40;99.90;;;;;;5140793;27;20416;-42
2021/03/15 03:41:26;;;;;;;5.37;4.53;;;2.40;99.90;;;;;;5122684;27;20269;-40
2021/03/15 03:43:52;;;;;;;5.37;3.70;;;2.40;99.90;;;;;;5140443;27;20187;-41
2021/03/15 03:46:18;;;;;;;5.20;4.80;;;2.40;99.90;;;;;;5140530;27;20290;-42
2021/03/15 03:48:44;;;;;;;4.77;4.07;;;2.20;99.90;;;;;;5140706;27;20178;-42
2021/03/15 03:51:11;;;;;;;6.07;4.27;;;2.30;99.90;;;;;;5140401;27;20712;-42
2021/03/15 03:53:50;;;;;;;7.80;4.47;;;2.30;99.90;;;;;;5140588;27;20585;-41
2021/03/15 03:56:24;;;;;;;5.17;3.83;;;2.20;99.90;;;;;;5122394;27;20431;-41
2021/03/15 03:58:52;;;;;;;6.30;4.00;;;2.30;99.90;;;;;;5140774;27;20420;-41
2021/03/15 04:01:24;;;;;;;7.70;4.63;;;2.20;99.90;;;;;;5122026;27;20421;-42
2021/03/15 04:03:53;;;;;;;4.90;4.20;;;2.20;99.90;;;;;;5122415;27;20429;-43
2021/03/15 04:06:19;;;;;;;5.90;4.40;;;2.20;99.90;;;;;;5122575;27;20787;-42
2021/03/15 04:08:50;;;;;;;11.07;5.87;;;2.30;99.90;;;;;;5140033;27;20439;-41
2021/03/15 04:11:19;;;;;;;7.50;4.73;;;2.30;99.90;;;;;;5122247;27;20499;-42
2021/03/15 04:13:49;;;;;;;6.77;4.67;;;2.40;99.90;;;;;;5121768;27;20440;-43
2021/03/15 04:16:15;;;;;;;7.77;4.77;;;2.40;99.90;;;;;;5121857;27;20818;-42
2021/03/15 04:18:46;;;;;;;5.73;4.07;;;2.40;99.90;;;;;;5105398;27;20842;-43
2021/03/15 04:21:13;;;;;;;9.90;5.63;;;2.40;99.90;;;;;;5140289;27;20441;-43
2021/03/15 04:23:40;;;;;;;7.63;4.17;;;2.40;99.90;;;;;;5139939;27;20523;-42
2021/03/15 04:26:07;;;;;;;6.97;4.20;;;2.50;99.90;;;;;;5121328;27;20487;-42
2021/03/15 04:28:35;;;;;;;7.20;5.27;;;2.50;99.90;;;;;;5139647;27;20425;-42
2021/03/15 04:31:01;;;;;;;9.20;5.10;;;2.50;99.90;;;;;;5139770;27;20426;-41
2021/03/15 04:33:27;;;;;;;6.17;4.90;;;2.50;99.90;;;;;;5121410;27;20420;-43
2021/03/15 04:35:53;;;;;;;7.13;4.23;;;2.50;99.90;;;;;;5121590;27;20846;-41
2021/03/15 04:38:21;;;;;;;6.30;4.80;;;2.50;99.90;;;;;;5121109;27;20556;-41
2021/03/15 04:40:48;;;;;;;5.70;4.47;;;2.50;99.90;;;;;;5121725;27;20416;-43
2021/03/15 04:43:15;;;;;;;5.43;4.33;;;2.50;99.90;;;;;;5121738;27;20439;-42
2021/03/15 04:45:44;;;;;;;5.97;5.37;;;2.50;99.90;;;;;;5139621;27;20464;-42
2021/03/15 04:48:15;;;;;;;5.20;4.20;;;2.50;99.90;;;;;;5139070;27;20710;-42
2021/03/15 04:50:43;;;;;;;6.17;4.20;;;2.60;99.90;;;;;;5138881;27;20428;-41
2021/03/15 04:53:09;;;;;;;8.20;4.80;;;2.50;99.90;;;;;;5138716;27;20671;-42
2021/03/15 04:55:35;;;;;;;4.50;3.60;;;2.50;99.90;;;;;;5120377;27;20431;-40
2021/03/15 04:58:04;;;;;;;7.57;4.50;;;;;;;;;;5139640;27;20440;-43
2021/03/15 05:00:30;;;;;;;8.23;5.43;;;2.50;99.90;;;;;;5139069;27;20263;-42
2021/03/15 05:02:56;;;;;;;6.70;4.00;;;2.50;99.90;;;;;;5104038;27;20428;-43
2021/03/15 05:05:23;;;;;;;4.80;4.00;;;2.50;99.90;;;;;;5138905;27;20505;-41
2021/03/15 05:07:49;;;;;;;5.07;4.20;;;2.50;99.90;;;;;;5103864;27;20428;-42
2021/03/15 05:10:15;;;;;;;7.53;4.60;;;2.50;99.90;;;;;;5120916;27;20902;-41
2021/03/15 05:12:42;;;;;;;6.00;4.00;;;2.50;99.90;;;;;;5138989;27;20509;-42
2021/03/15 05:15:10;;;;;;;7.40;5.00;;;2.50;99.90;;;;;;5120303;27;20432;-42
2021/03/15 05:17:36;;;;;;;5.27;4.70;;;2.50;99.90;;;;;;5138153;27;20584;-42
2021/03/15 05:20:16;;;;;;;10.87;4.23;;;2.50;99.90;;;;;;5137905;27;20795;-43
2021/03/15 05:22:42;;;;;;;6.33;4.90;;;2.50;99.90;;;;;;5129577;27;20528;-42
2021/03/15 05:25:09;;;;;;;6.43;4.50;;;2.50;99.90;;;;;;5119940;27;20447;-41
2021/03/15 05:27:35;;;;;;;4.10;3.63;;;2.50;99.90;;;;;;5119917;27;20471;-41
2021/03/15 05:30:04;;;;;;;4.53;4.10;;;2.50;99.90;;;;;;5119911;27;20436;-42
2021/03/15 05:32:32;;;;;;;5.47;4.00;;;2.40;99.90;;;;;;5138637;27;20221;-42
2021/03/15 05:34:59;;;;;;;4.80;4.17;;;2.40;99.90;;;;;;5138127;27;20421;-41
2021/03/15 05:37:26;;;;;;;6.07;4.50;;;2.40;99.90;;;;;;5119760;28;20767;-39
2021/03/15 05:39:52;;;;;;;6.07;3.80;;;2.40;99.90;;;;;;5120158;28;20475;-41
2021/03/15 05:42:17;;;;;;;5.43;3.67;;;2.40;99.90;;;;;;5138547;28;20429;-42
2021/03/15 05:45:10;;;;;;;10.80;4.80;;;2.40;99.90;;;;;;5137940;28;20629;-41
2021/03/15 05:48:12;;;;;;;7.63;4.87;;;2.40;99.90;;;;;;5119606;28;20190;-42
2021/03/15 05:51:04;;;;;;;4.20;3.80;;;2.30;99.90;;;;;;5119792;28;20492;-42
2021/03/15 05:54:00;;;;;;;5.97;4.27;;;2.30;99.90;;;;;;5128556;28;20428;-42
2021/03/15 05:56:58;;;;;;;5.40;4.10;;;2.40;99.90;;;;;;5137799;28;20437;-42
2021/03/15 05:59:44;;;;;;;4.90;4.40;;;2.30;99.90;;;;;;5138600;28;20493;-40
2021/03/15 06:02:21;;;;;;;6.20;4.40;;;2.30;99.90;;;;;;5137241;28;20436;-41
2021/03/15 06:05:05;;;;;;;5.13;3.93;;;2.30;99.90;;;;;;5137796;28;20527;-42
2021/03/15 06:07:33;;;;;;;6.67;4.60;;;2.30;99.90;;;;;;5136370;28;20472;-42
2021/03/15 06:10:07;;;;;;;5.50;4.23;;;2.30;99.90;;;;;;5118721;28;20413;-43
2021/03/15 06:12:47;;;;;;;7.70;4.50;;;2.20;99.90;;;;;;5137122;28;20706;-42
2021/03/15 06:15:15;;;;;;;6.60;4.90;;;2.30;99.90;;;;;;5117360;28;20413;-41
2021/03/15 06:17:41;;;;;;;6.50;5.30;;;2.20;99.90;;;;;;5134910;28;20799;-41
2021/03/15 06:20:08;;;;;;;6.70;4.90;;;2.20;99.90;;;;;;5116067;28;20417;-40
2021/03/15 06:22:34;;;;;;;6.30;4.97;;;2.30;99.90;;;;;;5117828;28;20577;-43
2021/03/15 06:25:01;;;;;;;5.07;4.37;;;2.20;99.90;;;;;;5135474;28;20431;-41
2021/03/15 06:27:28;;;;;;;7.97;4.77;;;2.20;99.90;;;;;;5135353;28;20716;-42
2021/03/15 06:29:56;;;;;;;4.90;4.13;;;2.20;99.90;;;;;;5136120;28;20436;-43
2021/03/15 06:32:27;;;;;;;8.30;4.63;;;2.20;99.90;;;;;;5135759;28;20695;-42
2021/03/15 06:34:55;;;;;;;7.90;5.13;;;2.20;99.90;;;;;;5134969;28;20456;-41
2021/03/15 06:37:21;;;;;;;5.13;3.90;;;2.20;99.90;;;;;;5134501;28;20436;-43
2021/03/15 06:39:49;;;;;;;4.80;4.30;;;2.30;99.90;;;;;;5134025;28;20423;-41
2021/03/15 06:42:16;;;;;;;5.43;4.47;;;2.30;99.90;;;;;;5116756;28;20456;-42
2021/03/15 06:44:42;;;;;;;4.93;4.43;;;2.40;99.90;;;;;;5117711;28;20425;-42
2021/03/15 06:47:09;;;;;;;4.20;3.80;;;2.20;99.90;;;;;;5135761;28;20520;-42
2021/03/15 06:49:34;;;;;;;8.07;4.63;;;2.40;99.90;;;;;;5120891;27;20192;-42
2021/03/15 06:52:04;;;;;;;6.40;4.60;;;2.40;99.90;;;;;;5138870;27;20428;-43
2021/03/15 06:54:30;;;;;;;5.57;4.80;;;2.40;99.90;;;;;;5139137;27;20473;-42
2021/03/15 06:57:15;;;;;;;4.70;4.13;;;2.30;99.90;;;;;;5140558;27;20412;-41
2021/03/15 06:59:49;;;;;;;5.63;4.90;;;2.50;99.90;;;;;;5138169;27;20910;-41
2021/03/15 07:02:28;;;;;;;6.90;3.83;;;2.50;99.90;;;;;;5136734;27;20501;-40
2021/03/15 07:05:05;;;;;;;6.33;4.90;;;2.60;99.90;;;;;;5138543;27;20413;-41
2021/03/15 07:07:31;;;;;;;5.90;4.47;;;2.60;99.90;;;;;;5119628;27;20498;-42
2021/03/15 07:09:56;;;;;;;4.00;3.60;;;2.70;99.90;;;;;;5120085;27;20413;-43
2021/03/15 07:12:24;;;;;;;8.83;4.37;;;2.70;99.90;;;;;;5136058;27;20179;-41
2021/03/15 07:14:51;;;;;;;4.33;3.90;;;2.80;99.90;;;;;;5119133;27;20239;-42
2021/03/15 07:17:25;;;;;;;8.70;4.07;;;2.90;99.90;;;;;;5137805;27;20464;-40
2021/03/15 07:19:51;;;;;;;4.07;3.10;;;3.10;99.90;;;;;;5137494;27;20736;-42
2021/03/15 07:22:26;;;;;;;3.73;3.07;;;3.20;99.90;;;;;;5138364;27;20427;-40
2021/03/15 07:25:10;;;;;;;3.33;3.00;;;3.20;99.90;;;;;;5139262;27;20412;-41
2021/03/15 07:27:38;;;;;;;4.40;2.43;;;3.20;99.90;;;;;;5119273;27;20484;-41
2021/03/15 07:30:34;;;;;;;7.50;3.60;;;3.10;99.90;;;;;;5137937;27;20546;-40
2021/03/15 07:33:02;;;;;;;3.50;1.63;;;2.90;99.90;;;;;;5128596;27;20421;-42
2021/03/15 07:35:36;;;;;;;2.97;1.90;;;2.80;99.90;;;;;;5137841;27;20405;-43
2021/03/15 07:38:02;;;;;;;2.37;1.97;;;2.70;99.90;;;;;;5138745;27;20447;-43
2021/03/15 07:40:31;;;;;;;2.47;2.20;;;2.60;99.90;;;;;;5137965;27;20511;-41
2021/03/15 07:43:07;;;;;;;2.40;2.10;;;2.50;99.90;;;;;;5138303;27;20413;-40
2021/03/15 07:45:45;;;;;;;2.10;1.77;;;2.50;99.90;;;;;;5137782;27;20730;-40
2021/03/15 07:48:19;;;;;;;4.47;3.23;;;2.60;99.90;;;;;;5140282;27;20417;-42
2021/03/15 07:51:03;;;;;;;4.10;2.77;;;2.60;99.90;;;;;;5121730;27;20511;-40
2021/03/15 07:53:47;;;;;;;4.47;3.67;;;2.40;99.90;;;;;;5138784;27;20810;-40
2021/03/15 07:56:20;;;;;;;3.70;3.10;;;2.50;99.90;;;;;;5139878;27;20412;-41
2021/03/15 07:58:46;;;;;;;5.13;3.50;;;2.40;99.90;;;;;;5119877;27;20436;-42
2021/03/15 08:01:12;;;;;;;5.70;3.47;;;2.50;99.90;;;;;;5137691;27;20523;-42
2021/03/15 08:03:41;;;;;;;3.70;2.80;;;2.60;99.90;;;;;;5138346;27;20511;-42
2021/03/15 08:06:09;;;;;;;2.93;2.63;;;2.70;99.90;;;;;;5138007;27;20537;-40
2021/03/15 08:08:35;;;;;;;2.70;2.50;;;2.80;99.90;;;;;;5102913;27;20436;-42
2021/03/15 08:11:04;;;;;;;2.77;2.47;;;2.80;99.90;;;;;;5138042;27;20503;-40
2021/03/15 08:13:34;;;;;;;2.37;2.00;;;2.90;99.90;;;;;;5138413;27;20728;-42
2021/03/15 08:16:01;;;;;;;3.30;2.50;;;2.90;99.90;;;;;;5137263;27;20815;-43
2021/03/15 08:18:28;;;;;;;2.17;1.87;;;2.90;99.90;;;;;;5119012;27;20834;-42
2021/03/15 08:21:16;;;;;;;2.40;2.07;;;3.10;99.90;;;;;;5137637;27;20416;-40
2021/03/15 08:23:43;;;;;;;3.03;2.10;;;3.30;99.90;;;;;;5137916;27;20488;-41
2021/03/15 08:26:15;;;;;;;1.73;1.63;;;3.40;99.90;;;;;;5136977;27;20833;-42
2021/03/15 08:28:43;;;;;;;1.77;1.67;;;3.30;99.90;;;;;;5137445;27;20775;-42
2021/03/15 08:31:08;;;;;;;2.27;1.70;;;3.40;99.90;;;;;;5137507;27;20480;-39
2021/03/15 08:33:34;;;;;;;3.33;1.67;;;3.30;99.90;;;;;;5137337;27;20420;-43
2021/03/15 08:36:00;;;;;;;3.47;1.93;;;3.30;99.90;;;;;;5118082;27;20453;-41
2021/03/15 08:38:31;;;;;;;3.40;2.60;;;3.20;99.90;;;;;;5117333;27;20179;-42
2021/03/15 08:40:58;;;;;;;2.37;1.53;;;3.10;99.90;;;;;;5136904;27;20191;-41
2021/03/15 08:43:25;;;;;;;1.60;1.20;;;2.90;99.90;;;;;;5137253;27;20451;-41
2021/03/15 08:46:02;;;;;;;2.87;1.80;;;2.80;99.90;;;;;;5137453;27;20519;-42
2021/03/15 08:48:33;;;;;;;1.93;1.40;;;2.80;99.90;;;;;;5138358;27;20527;-40
2021/03/15 08:51:22;;;;;;;5.53;1.90;;;2.80;99.90;;;;;;5138316;27;20799;-41
2021/03/15 08:53:53;;;;;;;1.40;1.27;;;4.20;99.90;;;;;;5127694;27;20436;-43
2021/03/15 08:56:19;;;;;;;2.03;1.30;;;5.80;99.90;;;;;;5138446;27;20412;-42
2021/03/15 08:58:52;;;;;;;1.53;1.13;;;6.70;99.90;;;;;;5137652;27;20853;-42
2021/03/15 09:01:22;;;;;;;0.80;0.70;;;7.20;99.90;;;;;;5138183;27;20445;-42
2021/03/15 09:03:59;;;;;;;1.00;0.83;;;7.60;98.90;;;;;;5119626;27;20436;-41
2021/03/15 09:06:31;;;;;;;1.20;0.80;;;7.80;98.00;;;;;;5136736;27;20460;-42
2021/03/15 09:09:05;;;;;;;1.93;0.80;;;7.30;94.80;;;;;;5136527;27;20428;-42
2021/03/15 09:11:42;;;;;;;0.90;0.70;;;6.10;96.80;;;;;;5135588;27;20420;-40
2021/03/15 09:14:16;;;;;;;1.53;0.87;;;4.90;98.90;;;;;;5136722;27;20811;-41
2021/03/15 09:16:58;;;;;;;1.27;0.90;;;4.50;99.90;;;;;;5136478;27;20483;-42
2021/03/15 09:19:34;;;;;;;2.00;0.97;;;4.10;99.90;;;;;;5137562;27;20416;-41
2021/03/15 09:22:00;;;;;;;2.30;1.10;;;3.90;99.90;;;;;;5137482;27;20416;-42
2021/03/15 09:24:44;;;;;;;1.40;0.90;;;4.00;99.90;;;;;;5135378;27;20420;-42
2021/03/15 09:27:12;;;;;;;2.03;1.20;;;3.90;99.90;;;;;;5137370;27;20468;-40
2021/03/15 09:29:38;;;;;;;1.53;1.00;;;4.00;99.90;;;;;;5136804;27;20417;-42
2021/03/15 09:32:07;;;;;;;1.97;1.13;;;3.80;99.90;;;;;;5135129;27;20527;-42
2021/03/15 09:34:33;;;;;;;1.50;1.10;;;3.70;99.90;;;;;;5135417;27;20845;-41
2021/03/15 09:37:00;;;;;;;2.13;1.30;;;3.80;99.90;;;;;;5134285;27;20436;-41
2021/03/15 09:39:28;;;;;;;1.60;1.23;;;3.80;99.90;;;;;;5135323;27;20485;-42
2021/03/15 09:41:54;;;;;;;2.03;1.70;;;3.70;99.90;;;;;;5130908;27;20433;-42
2021/03/15 09:44:30;;;;;;;1.47;1.27;;;3.80;99.90;;;;;;5116181;28;20422;-42
2021/03/15 09:46:56;;;;;;;2.27;1.30;;;3.90;99.90;;;;;;5117127;28;20456;-39
2021/03/15 09:49:41;;;;;;;1.97;1.77;;;4.00;99.90;;;;;;5116472;28;20699;-38
2021/03/15 09:52:14;;;;;;;1.70;1.50;;;4.00;99.90;;;;;;5116915;28;20516;-41
2021/03/15 09:54:52;;;;;;;3.27;2.10;;;4.10;99.90;;;;;;5116559;28;20669;-41
2021/03/15 09:57:19;;;;;;;4.30;2.67;;;4.10;99.90;;;;;;5115673;28;20450;-39
2021/03/15 09:59:45;;;;;;;3.27;1.93;;;4.20;99.90;;;;;;5116148;28;20784;-41
2021/03/15 10:02:14;;;;;;;5.10;2.17;;;4.30;99.90;;;;;;5116566;28;20504;-41
2021/03/15 10:04:40;;;;;;;2.80;2.23;;;4.30;99.90;;;;;;5116363;28;20426;-40
2021/03/15 10:07:10;;;;;;;4.03;2.60;;;4.20;99.90;;;;;;5096590;28;20476;-40
2021/03/15 10:09:39;;;;;;;2.97;2.67;;;4.30;99.90;;;;;;5115024;28;20482;-42
2021/03/15 10:12:07;;;;;;;2.40;1.90;;;4.40;99.90;;;;;;5114330;28;20410;-41
2021/03/15 10:14:32;;;;;;;2.30;2.00;;;4.50;99.90;;;;;;5116130;28;20449;-41
2021/03/15 10:17:05;;;;;;;2.83;2.30;;;4.40;99.90;;;;;;5112720;28;20472;-40
2021/03/15 10:19:32;;;;;;;3.40;2.70;;;4.60;99.90;;;;;;5114532;28;20180;-42
2021/03/15 10:22:16;;;;;;;2.37;2.17;;;4.70;99.90;;;;;;5096546;28;20718;-43
2021/03/15 10:24:42;;;;;;;2.57;2.10;;;4.60;99.90;;;;;;5119710;28;20724;-42
2021/03/15 10:27:19;;;;;;;4.00;1.77;;;4.60;99.90;;;;;;5119045;28;21121;-41
2021/03/15 10:29:53;;;;;;;2.70;2.50;;;4.70;99.90;;;;;;5118676;28;20989;-41
2021/03/15 10:32:21;;;;;;;3.93;2.87;;;4.70;99.90;;;;;;5118637;28;20445;-42
2021/03/15 10:34:57;;;;;;;4.00;2.37;;;4.80;99.90;;;;;;5119618;28;20757;-40
2021/03/15 10:37:23;;;;;;;4.23;2.30;;;4.80;99.90;;;;;;5119413;28;20420;-40
2021/03/15 10:39:50;;;;;;;3.00;2.70;;;4.70;99.90;;;;;;5101216;28;20713;-40
2021/03/15 10:42:20;;;;;;;3.53;2.90;;;4.60;99.90;;;;;;5100775;28;20428;-42
2021/03/15 10:44:47;;;;;;;4.00;3.70;;;4.80;99.90;;;;;;5102618;28;20827;-42
2021/03/15 10:47:13;;;;;;;4.10;3.03;;;4.80;99.90;;;;;;5101830;28;20472;-43
2021/03/15 10:49:40;;;;;;;2.67;2.47;;;4.90;99.90;;;;;;5120226;28;20413;-41
2021/03/15 10:52:06;;;;;;;2.57;2.37;;;4.90;99.90;;;;;;5101670;28;20436;-43
2021/03/15 10:54:31;;;;;;;3.07;2.73;;;5.10;99.90;;;;;;5120013;28;20418;-41
2021/03/15 10:57:11;;;;;;;2.50;2.30;;;5.10;99.90;;;;;;5101651;28;20192;-42
2021/03/15 10:59:37;;;;;;;3.30;3.00;;;5.20;99.90;;;;;;5101235;28;20302;-39
2021/03/15 11:02:03;;;;;;;3.50;2.37;;;5.20;99.90;;;;;;5119640;28;20425;-41
2021/03/15 11:04:34;;;;;;;3.40;3.10;;;5.00;99.90;;;;;;5118075;28;20824;-38
2021/03/15 11:06:59;;;;;;;3.23;2.30;;;4.80;99.90;;;;;;5117572;28;20580;-41
2021/03/15 11:09:25;;;;;;;7.10;3.53;;;5.00;99.90;;;;;;5101617;28;20453;-41
2021/03/15 11:11:55;;;;;;;3.27;2.60;;;5.00;99.90;;;;;;5101078;28;20172;-41
2021/03/15 11:14:20;;;;;;;2.50;2.20;;;4.90;99.90;;;;;;5120424;28;20236;-42
2021/03/15 11:16:46;;;;;;;2.97;2.67;;;4.90;99.90;;;;;;5118454;28;20775;-41
2021/03/15 11:19:17;;;;;;;3.47;2.40;;;5.00;99.90;;;;;;5101788;28;20234;-42
2021/03/15 11:21:46;;;;;;;3.00;2.70;;;5.10;99.90;;;;;;5117291;28;20849;-40
2021/03/15 11:24:13;;;;;;;3.17;2.80;;;5.30;99.90;;;;;;5115732;28;20524;-42
2021/03/15 11:26:46;;;;;;;3.40;2.70;;;5.40;99.90;;;;;;5116826;28;21125;-41
2021/03/15 11:29:12;;;;;;;4.40;3.20;;;5.30;99.90;;;;;;5098494;28;20450;-42
2021/03/15 11:31:47;;;;;;;3.00;2.50;;;5.30;99.90;;;;;;5115542;28;20409;-42
2021/03/15 11:34:17;;;;;;;3.00;2.70;;;5.50;99.90;;;;;;5117244;28;20517;-41
2021/03/15 11:36:45;;;;;;;3.13;2.40;;;6.00;99.90;;;;;;5117484;28;20413;-41
2021/03/15 11:39:11;;;;;;;3.00;2.20;;;7.00;99.90;;;;;;5118809;28;20486;-40
2021/03/15 11:41:39;;;;;;;4.47;2.57;;;7.90;99.90;;;;;;5118883;28;20413;-40
2021/03/15 11:44:05;;;;;;;2.70;2.17;;;8.40;98.70;;;;;;5118493;28;20494;-42
2021/03/15 11:46:30;;;;;;;2.43;2.23;;;8.80;96.90;;;;;;5119425;28;20473;-40
2021/03/15 11:48:56;;;;;;;1.83;1.73;;;9.50;96.80;;;;;;5119660;28;20422;-42
2021/03/15 11:51:21;;;;;;;2.60;1.70;;;9.60;94.90;;;;;;5119056;28;20191;-42
2021/03/15 11:53:47;;;;;;;1.83;1.67;;;10.10;92.60;;;;;;5100693;28;20251;-41
2021/03/15 11:56:14;;;;;;;2.67;2.17;;;10.10;92.20;;;;;;5118858;28;20184;-42
2021/03/15 11:58:40;;;;;;;2.40;2.00;;;8.80;93.30;;;;;;5119007;28;20187;-41
2021/03/15 12:01:08;;;;;;;1.80;1.70;;;8.70;94.60;;;;;;5118836;28;20425;-42
2021/03/15 12:03:34;;;;;;;2.87;2.53;;;8.50;94.90;;;;;;5115231;28;20433;-41
2021/03/15 12:06:00;;;;;;;5.00;2.53;;;7.90;95.80;;;;;;5117702;28;20488;-41
2021/03/15 12:08:27;;;;;;;5.30;2.83;;;7.70;96.70;;;;;;5118904;28;20418;-40
2021/03/15 12:10:53;;;;;;;2.70;1.97;;;7.40;96.80;;;;;;5119124;28;20445;-42
2021/03/15 12:13:19;;;;;;;3.30;1.80;;;7.00;97.40;;;;;;5118494;28;20471;-40
2021/03/15 12:15:45;;;;;;;4.50;2.50;;;6.80;98.00;;;;;;5118080;28;20429;-41
2021/03/15 12:18:11;;;;;;;2.87;2.43;;;6.50;98.60;;;;;;5118660;28;20780;-41
2021/03/15 12:20:37;;;;;;;2.20;2.00;;;6.60;99.30;;;;;;5118068;28;20180;-42
2021/03/15 12:23:04;;;;;;;2.50;2.30;;;6.70;99.40;;;;;;5127047;27;20436;-42
2021/03/15 12:25:35;;;;;;;3.80;2.53;;;6.80;99.30;;;;;;5136854;27;20424;-42
2021/03/15 12:28:02;;;;;;;2.70;2.35;;;6.90;99.00;;;;;;5136089;27;20409;-41
2021/03/15 12:30:28;;;;;;;3.37;3.07;;;7.10;98.90;;;;;;5136064;27;20185;-41
2021/03/15 12:32:53;;;;;;;2.50;2.30;;;7.40;98.90;;;;;;5136404;27;20414;-40
2021/03/15 12:35:19;;;;;;;3.40;2.80;;;7.80;97.90;;;;;;5134124;27;20464;-42
2021/03/15 12:37:46;;;;;;;3.10;2.90;;;8.50;97.70;;;;;;5135132;27;20179;-42
2021/03/15 12:40:11;;;;;;;3.10;2.80;;;9.10;96.70;;;;;;5136110;27;20285;-42
2021/03/15 12:42:38;;;;;;;2.50;2.30;;;9.40;95.40;;;;;;5134449;27;20532;-41
2021/03/15 12:45:07;;;;;;;2.90;2.60;;;9.40;94.50;;;;;;5134466;27;20334;-41
2021/03/15 12:47:33;;;;;;;5.20;3.20;;;9.90;94.00;;;;;;5134724;27;20909;-42
2021/03/15 12:49:59;;;;;;;3.03;1.90;;;10.50;92.80;;;;;;5136392;27;20409;-42
2021/03/15 12:52:27;;;;;;;2.40;2.20;;;10.60;90.90;;;;;;5135874;27;20416;-42
2021/03/15 12:54:53;;;;;;;3.50;2.57;;;10.40;90.60;;;;;;5134837;27;20504;-42
2021/03/15 12:57:19;;;;;;;3.00;2.63;;;10.20;90.10;;;;;;5135735;27;20516;-41
2021/03/15 12:59:44;;;;;;;2.90;2.43;;;9.60;91.20;;;;;;5118795;27;20918;-42
2021/03/15 13:02:10;;;;;;;2.30;2.10;;;9.10;91.60;;;;;;5118481;27;20175;-41
2021/03/15 13:04:36;;;;;;;3.57;3.23;;;8.70;92.40;;;;;;5137441;27;20488;-42
2021/03/15 13:07:02;;;;;;;3.03;2.73;;;8.60;93.80;;;;;;5137622;27;20464;-41
2021/03/15 13:09:28;;;;;;;3.90;3.30;;;8.60;93.70;;;;;;5138821;27;20219;-43
2021/03/15 13:11:56;;;;;;;2.90;2.70;;;8.80;92.60;;;;;;5135292;27;20405;-41